createdAt,value
2024-03-04T00:01:35.887Z,95554.09
2024-03-04T00:06:38.985Z,95557.75
2024-03-04T00:11:43.588Z,95561.00
2024-03-04T00:16:48.910Z,95563.41
2024-03-04T00:21:52.218Z,95564.56
2024-03-04T00:26:57.235Z,95567.97
2024-03-04T00:32:00.610Z,95561.72
2024-03-04T00:37:04.914Z,95563.06
2024-03-04T00:42:09.789Z,95570.72
2024-03-04T00:47:12.879Z,95575.72
2024-03-04T00:52:16.390Z,95597.09
2024-03-04T00:57:22.261Z,95598.91
2024-03-04T01:02:25.637Z,95599.94
2024-03-04T01:07:30.369Z,95607.50
2024-03-04T01:12:34.922Z,95628.50
2024-03-04T01:17:37.999Z,95625.53
2024-03-04T01:22:41.847Z,95618.56
2024-03-04T01:27:46.642Z,95611.47
2024-03-04T01:32:49.829Z,95613.63
2024-03-04T01:37:52.938Z,95620.97
2024-03-04T01:42:58.015Z,95617.84
2024-03-04T01:48:03.076Z,95618.00
2024-03-04T01:53:07.397Z,95617.06
2024-03-04T01:58:13.463Z,95610.56
2024-03-04T02:03:18.997Z,95615.22
2024-03-04T02:08:22.209Z,95623.34
2024-03-04T02:13:27.072Z,95622.91
2024-03-04T02:18:31.381Z,95630.00
2024-03-04T02:23:35.912Z,95632.63
2024-03-04T02:28:40.588Z,95631.94
2024-03-04T02:33:45.834Z,95635.44
2024-03-04T02:38:50.424Z,95641.06
2024-03-04T02:43:53.482Z,95647.09
2024-03-04T02:48:56.614Z,95654.66
2024-03-04T02:54:01.082Z,95654.44
2024-03-04T02:59:04.257Z,95644.16
2024-03-04T03:04:07.362Z,95645.53
2024-03-04T03:09:12.756Z,95642.56
2024-03-04T03:14:16.669Z,95657.53
2024-03-04T03:19:24.943Z,95666.06
2024-03-04T03:24:29.442Z,95668.59
2024-03-04T03:29:32.491Z,95668.69
2024-03-04T03:34:35.806Z,95691.66
2024-03-04T03:39:40.258Z,95690.75
2024-03-04T03:44:43.336Z,95691.97
2024-03-04T03:49:46.459Z,95711.72
2024-03-04T03:54:50.911Z,95722.91
2024-03-04T03:59:54.041Z,95735.50
2024-03-04T04:04:57.185Z,95737.53
2024-03-04T04:10:01.692Z,95734.81
2024-03-04T04:15:05.373Z,95743.63
2024-03-04T04:20:09.573Z,95749.31
2024-03-04T04:25:14.700Z,95740.72
2024-03-04T04:30:18.484Z,95734.25
2024-03-04T04:35:21.807Z,95726.50
2024-03-04T04:40:26.316Z,95727.06
2024-03-04T04:45:29.442Z,95711.63
2024-03-04T04:50:33.050Z,95725.91
2024-03-04T04:55:38.323Z,95730.25
2024-03-04T05:00:42.807Z,95733.13
2024-03-04T05:05:45.902Z,95744.78
2024-03-04T05:10:50.530Z,95753.66
2024-03-04T05:15:54.326Z,95760.97
2024-03-04T05:20:57.455Z,95768.75
2024-03-04T05:26:02.124Z,95767.56
2024-03-04T05:31:05.420Z,95759.59
2024-03-04T05:36:09.929Z,95773.59
2024-03-04T05:41:14.464Z,95772.66
2024-03-04T05:46:17.669Z,95777.97
2024-03-04T05:51:21.165Z,95786.31
2024-03-04T05:56:25.585Z,95797.75
2024-03-04T06:01:28.706Z,95797.84
2024-03-04T06:06:31.792Z,95816.47
2024-03-04T06:11:36.492Z,95825.50
2024-03-04T06:16:39.704Z,95825.50
2024-03-04T06:21:43.774Z,95827.91
2024-03-04T06:26:49.584Z,95835.78
2024-03-04T06:31:55.875Z,95851.66
2024-03-04T06:36:59.375Z,95856.91
2024-03-04T06:42:04.216Z,95863.44
2024-03-04T06:47:07.629Z,95867.41
2024-03-04T06:52:10.933Z,95873.03
2024-03-04T06:57:18.404Z,95881.81
2024-03-04T07:02:21.637Z,95886.50
2024-03-04T07:07:26.113Z,95882.16
2024-03-04T07:12:30.871Z,95895.63
2024-03-04T07:17:35.712Z,95892.44
2024-03-04T07:22:39.310Z,95904.00
2024-03-04T07:27:43.815Z,95906.28
2024-03-04T07:32:46.936Z,95911.53
2024-03-04T07:37:50.054Z,95919.53
2024-03-04T07:42:54.537Z,95919.31
2024-03-04T07:47:58.209Z,95921.03
2024-03-04T07:53:01.358Z,95929.91
2024-03-04T07:58:06.236Z,95932.69
2024-03-04T08:03:10.195Z,95929.28
2024-03-04T08:08:13.237Z,95930.16
2024-03-04T08:13:17.776Z,95935.19
2024-03-04T08:18:21.293Z,95933.84
2024-03-04T08:23:24.981Z,95939.19
2024-03-04T08:28:35.187Z,95949.72
2024-03-04T08:33:39.365Z,95949.81
2024-03-04T08:38:42.423Z,95962.38
2024-03-04T08:43:48.826Z,95969.63
2024-03-04T08:48:52.027Z,95981.72
2024-03-04T08:53:55.077Z,95971.06
2024-03-04T08:59:00.990Z,95978.16
2024-03-04T09:04:04.320Z,95973.69
2024-03-04T09:09:09.625Z,95972.31
2024-03-04T09:14:14.185Z,95966.69
2024-03-04T09:19:17.464Z,95968.63
2024-03-04T09:24:20.567Z,95972.94
2024-03-04T09:29:26.002Z,95980.84
2024-03-04T09:34:29.131Z,95986.69
2024-03-04T09:39:32.260Z,95991.69
2024-03-04T09:44:36.826Z,95989.00
2024-03-04T09:49:40.677Z,95996.47
2024-03-04T09:54:44.143Z,95992.66
2024-03-04T09:59:50.482Z,95993.63
2024-03-04T10:04:54.235Z,95991.19
2024-03-04T10:09:58.575Z,95988.69
2024-03-04T10:15:11.078Z,95987.75
2024-03-04T10:20:14.827Z,95981.63
2024-03-04T10:25:18.048Z,95993.94
2024-03-04T10:30:25.789Z,95997.44
2024-03-04T10:35:29.800Z,96000.31
2024-03-04T10:40:35.282Z,96006.47
2024-03-04T10:45:40.961Z,96012.59
2024-03-04T10:50:44.064Z,96009.06
2024-03-04T10:55:48.060Z,96001.00
2024-03-04T11:00:52.620Z,96000.25
2024-03-04T11:05:57.419Z,96002.91
2024-03-04T11:11:04.974Z,95997.38
2024-03-04T11:16:13.972Z,95986.53
2024-03-04T11:21:17.558Z,95988.59
2024-03-04T11:26:21.894Z,95985.47
2024-03-04T11:31:27.896Z,95983.22
2024-03-04T11:36:31.573Z,95983.56
2024-03-04T11:41:41.907Z,95978.84
2024-03-04T11:46:47.206Z,95972.06
2024-03-04T11:51:58.709Z,95975.81
2024-03-04T11:57:02.456Z,95971.84
2024-03-04T12:02:13.176Z,95973.34
2024-03-04T12:07:16.595Z,95971.81
2024-03-04T12:12:19.746Z,95966.06
2024-03-04T12:17:24.461Z,95961.47
2024-03-04T12:22:31.563Z,95957.09
2024-03-04T12:27:37.782Z,95962.06
2024-03-04T12:32:42.790Z,95957.41
2024-03-04T12:37:46.120Z,95953.78
2024-03-04T12:42:54.120Z,95938.97
2024-03-04T12:47:59.347Z,95940.03
2024-03-04T12:53:02.697Z,95946.88
2024-03-04T12:58:05.989Z,95943.31
2024-03-04T13:03:10.449Z,95943.41
2024-03-04T13:08:13.624Z,95935.81
2024-03-04T13:13:16.734Z,95929.66
2024-03-04T13:18:21.310Z,95927.78
2024-03-04T13:23:24.408Z,95932.44
2024-03-04T13:28:27.567Z,95939.66
2024-03-04T13:33:32.085Z,95930.94
2024-03-04T13:38:35.239Z,95938.63
2024-03-04T13:43:38.643Z,95927.81
2024-03-04T13:48:43.081Z,95937.88
2024-03-04T13:53:48.586Z,95926.44
2024-03-04T13:58:52.452Z,95925.84
2024-03-04T14:03:56.947Z,95915.50
2024-03-04T14:09:00.426Z,95918.66
2024-03-04T14:14:03.501Z,95911.53
2024-03-04T14:19:08.097Z,95901.72
2024-03-04T14:24:11.368Z,95899.34
2024-03-04T14:29:14.437Z,95896.44
2024-03-04T14:34:18.900Z,95899.34
2024-03-04T14:39:21.966Z,95897.94
2024-03-04T14:44:25.055Z,95896.22
2024-03-04T14:49:30.050Z,95891.38
2024-03-04T14:54:33.166Z,95889.00
2024-03-04T14:59:37.176Z,95889.34
2024-03-04T15:04:42.637Z,95889.91
2024-03-04T15:09:45.992Z,95888.34
2024-03-04T15:14:49.068Z,95889.13
2024-03-04T15:19:53.610Z,95890.94
2024-03-04T15:24:56.935Z,95884.81
2024-03-04T15:29:59.978Z,95888.75
2024-03-04T15:35:07.545Z,95884.44
2024-03-04T15:40:13.894Z,95884.09
2024-03-04T15:45:17.200Z,95885.19
2024-03-04T15:50:21.924Z,95876.25
2024-03-04T15:55:25.010Z,95888.63
2024-03-04T16:00:28.142Z,95881.50
2024-03-04T16:05:32.641Z,95883.63
2024-03-04T16:10:35.892Z,95881.75
2024-03-04T16:15:45.265Z,95888.31
2024-03-04T16:20:56.688Z,95889.84
2024-03-04T16:25:59.947Z,95888.19
2024-03-04T16:31:03.087Z,95893.72
2024-03-04T16:36:08.335Z,95896.31
2024-03-04T16:41:21.061Z,95894.94
2024-03-04T16:46:24.119Z,95898.81
2024-03-04T16:51:28.834Z,95905.69
2024-03-04T16:56:32.809Z,95903.50
2024-03-04T17:01:38.940Z,95917.81
2024-03-04T17:06:47.696Z,95927.25
2024-03-04T17:11:51.023Z,95928.28
2024-03-04T17:16:56.361Z,95941.63
2024-03-04T17:22:00.925Z,95942.03
2024-03-04T17:27:04.105Z,95937.41
2024-03-04T17:32:08.392Z,95946.34
2024-03-04T17:37:12.878Z,95939.22
2024-03-04T17:42:17.192Z,95945.72
2024-03-04T17:47:21.566Z,95953.88
2024-03-04T17:52:26.026Z,95957.81
2024-03-04T17:57:29.338Z,95966.19
2024-03-04T18:02:32.443Z,95965.28
2024-03-04T18:07:37.054Z,95975.03
2024-03-04T18:12:40.161Z,95980.31
2024-03-04T18:17:43.796Z,95984.50
2024-03-04T18:22:48.348Z,95990.25
2024-03-04T18:27:51.687Z,95994.16
2024-03-04T18:32:54.923Z,96004.91
2024-03-04T18:38:00.128Z,96011.25
2024-03-04T18:43:04.041Z,96010.28
2024-03-04T18:48:08.220Z,96013.00
2024-03-04T18:53:12.707Z,96013.97
2024-03-04T18:58:15.834Z,96027.06
2024-03-04T19:03:18.985Z,96029.22
2024-03-04T19:08:23.442Z,96035.94
2024-03-04T19:13:27.880Z,96035.03
2024-03-04T19:18:30.946Z,96042.53
2024-03-04T19:23:35.656Z,96053.25
2024-03-04T19:28:38.886Z,96060.25
2024-03-04T19:33:42.026Z,96064.06
2024-03-04T19:38:46.543Z,96062.38
2024-03-04T19:43:49.798Z,96077.38
2024-03-04T19:48:54.016Z,96079.91
2024-03-04T19:53:59.193Z,96090.69
2024-03-04T19:59:02.425Z,96108.44
2024-03-04T20:04:05.840Z,96105.25
2024-03-04T20:09:14.707Z,96109.41
2024-03-04T20:14:17.869Z,96113.97
2024-03-04T20:19:20.999Z,96120.84
2024-03-04T20:24:25.891Z,96124.31
2024-03-04T20:29:28.931Z,96125.81
2024-03-04T20:34:32.097Z,96131.88
2024-03-04T20:39:36.593Z,96135.31
2024-03-04T20:44:39.987Z,96133.72
2024-03-04T20:49:43.433Z,96138.28
2024-03-04T20:54:47.940Z,96134.72
2024-03-04T20:59:51.029Z,96138.75
2024-03-04T21:04:54.417Z,96138.84
2024-03-04T21:09:58.908Z,96148.22
2024-03-04T21:15:01.992Z,96146.75
2024-03-04T21:20:06.272Z,96160.03
2024-03-04T21:25:13.229Z,96150.19
2024-03-04T21:30:16.961Z,96157.59
2024-03-04T21:35:20.277Z,96154.66
2024-03-04T21:40:24.945Z,96167.28
2024-03-04T21:45:28.072Z,96176.31
2024-03-04T21:50:31.123Z,96184.53
2024-03-04T21:55:35.617Z,96184.63
2024-03-04T22:00:38.886Z,96192.16
2024-03-04T22:05:41.948Z,96191.91
2024-03-04T22:10:46.508Z,96198.84
2024-03-04T22:15:49.877Z,96204.00
2024-03-04T22:20:52.983Z,96193.25
2024-03-04T22:25:57.483Z,96199.41
2024-03-04T22:31:00.621Z,96199.59
2024-03-04T22:36:04.367Z,96198.13
2024-03-04T22:41:08.786Z,96201.38
2024-03-04T22:46:11.983Z,96204.19
2024-03-04T22:51:15.162Z,96209.63
2024-03-04T22:56:19.645Z,96214.41
2024-03-04T23:01:29.865Z,96222.75
2024-03-04T23:06:33.149Z,96214.78
2024-03-04T23:11:37.806Z,96220.50
2024-03-04T23:16:42.502Z,96221.50
2024-03-04T23:21:47.525Z,96221.84
2024-03-04T23:26:51.927Z,96219.03
2024-03-04T23:31:55.483Z,96222.91
2024-03-04T23:36:59.433Z,96230.34
2024-03-04T23:42:03.936Z,96232.75
2024-03-04T23:47:08.266Z,96227.00
2024-03-04T23:52:11.298Z,96234.66
2024-03-04T23:57:15.801Z,96239.84
